Time;durP1;ratioP1;P1;durP2;ratioP2;P2;SDS_P1;SDS_P2;PMS_P1;PMS_P2;Temp;Humidity;BMP_temperature;BMP_pressure;BME280_temperature;BME280_humidity;BME280_pressure;Samples;Min_cycle;Max_cycle;Signal;HPM_P1;HPM_P2
2022/11/28 00:01:43;;;;;;;27.13;18.67;;;;;;;10.70;64.54;101143.06;4959420;28;119742;-75
2022/11/28 00:04:09;;;;;;;24.58;18.33;;;;;;;10.69;64.38;101134.06;4985053;28;119588;-75
2022/11/28 00:06:44;;;;;;;22.48;17.38;;;;;;;10.69;64.88;101130.53;4946990;28;122183;-75
2022/11/28 00:09:10;;;;;;;23.67;17.77;;;;;;;10.66;64.67;101123.97;4978463;28;119406;-75
2022/11/28 00:11:39;;;;;;;24.55;17.73;;;;;;;10.69;64.82;101125.06;4983125;28;119634;-75
2022/11/28 00:14:05;;;;;;;28.08;18.38;;;;;;;10.69;64.79;101123.09;4987787;28;119443;-75
2022/11/28 00:16:31;;;;;;;24.87;17.40;;;;;;;10.66;65.10;101110.25;4980727;28;119188;-75
2022/11/28 00:18:58;;;;;;;25.07;17.90;;;;;;;10.66;65.09;101110.25;4987429;28;120144;-75
2022/11/28 00:21:27;;;;;;;24.83;17.33;;;;;;;10.64;64.74;101095.41;4960688;28;120149;-75
2022/11/28 00:23:52;;;;;;;29.30;17.87;;;;;;;10.67;64.70;101100.03;4948293;28;119483;-75
2022/11/28 00:26:40;;;;;;;25.77;17.55;;;;;;;10.64;64.72;101095.41;4943352;28;119576;-75
2022/11/28 00:29:38;;;;;;;24.88;17.88;;;;;;;10.60;64.90;101083.78;4937686;28;119465;-75
2022/11/28 00:32:05;;;;;;;23.83;17.77;;;;;;;10.62;64.89;101086.84;4977043;28;119563;-75
2022/11/28 00:34:31;;;;;;;25.13;18.17;;;;;;;10.61;65.13;101079.84;4981054;28;119909;-75
2022/11/28 00:36:57;;;;;;;27.00;18.40;;;;;;;10.60;65.01;101076.31;4985836;28;119684;-75
2022/11/28 00:39:22;;;;;;;25.17;18.33;;;;;;;10.58;65.16;101075.22;4979956;28;120356;-75
2022/11/28 00:41:48;;;;;;;25.40;19.23;;;;;;;10.58;65.27;101102.66;4949084;28;119511;-76
2022/11/28 00:44:14;;;;;;;28.45;18.73;;;;;;;10.60;65.27;101097.50;4985539;28;120167;-75
2022/11/28 00:46:40;;;;;;;26.67;18.50;;;;;;;10.60;65.15;101089.28;4980364;28;119637;-75
2022/11/28 00:49:07;;;;;;;25.35;18.85;;;;;;;10.60;65.33;101067.31;4965201;28;119522;-76
2022/11/28 00:51:34;;;;;;;26.52;18.85;;;;;;;10.58;65.03;101065.03;4983224;28;119509;-75
2022/11/28 00:54:02;;;;;;;26.85;19.02;;;;;;;10.56;65.13;101059.22;4970361;28;121091;-75
2022/11/28 00:56:31;;;;;;;24.52;18.30;;;;;;;10.60;64.89;101064.59;4964325;28;119297;-75
2022/11/28 00:58:59;;;;;;;27.07;18.80;;;;;;;10.60;65.47;101056.34;4985435;28;119580;-76
2022/11/28 01:01:28;;;;;;;26.23;18.75;;;;;;;10.63;65.37;101058.97;4983400;28;119692;-75
2022/11/28 01:03:55;;;;;;;25.85;18.83;;;;;;;10.63;65.03;101056.25;4968483;28;120327;-75
2022/11/28 01:06:28;;;;;;;26.50;18.48;;;;;;;10.62;65.34;101053.94;4982904;28;120000;-75
2022/11/28 01:08:56;;;;;;;27.00;18.57;;;;;;;10.61;65.49;101052.41;4980718;28;119621;-75
2022/11/28 01:11:22;;;;;;;26.60;18.42;;;;;;;10.59;65.06;101052.06;4978756;28;119752;-75
2022/11/28 01:13:48;;;;;;;26.35;19.08;;;;;;;10.59;65.00;101052.06;4982780;28;120394;-75
2022/11/28 01:16:14;;;;;;;28.00;18.63;;;;;;;10.62;65.39;101049.22;4971672;28;119746;-75
2022/11/28 01:18:40;;;;;;;25.52;18.63;;;;;;;10.62;65.34;101040.22;4991605;28;119676;-75
2022/11/28 01:21:06;;;;;;;25.57;18.80;;;;;;;10.64;65.91;101046.03;4967261;28;119993;-75
2022/11/28 01:23:33;;;;;;;28.67;18.65;;;;;;;10.65;65.27;101047.59;4986502;28;119826;-75
2022/11/28 01:26:00;;;;;;;27.60;18.60;;;;;;;10.63;65.29;101047.25;4995955;28;120476;-75
2022/11/28 01:28:27;;;;;;;25.80;19.00;;;;;;;10.63;65.34;101037.03;4989292;28;119543;-75
2022/11/28 01:30:53;;;;;;;27.80;19.33;;;;;;;10.64;65.37;101040.53;4981575;28;119577;-75
2022/11/28 01:33:19;;;;;;;26.43;19.10;;;;;;;10.63;65.38;101039.00;4983477;28;120413;-75
2022/11/28 01:36:02;;;;;;;25.58;18.67;;;;;;;10.63;65.69;101034.28;4986287;28;119812;-75
2022/11/28 01:38:28;;;;;;;26.50;18.73;;;;;;;10.64;65.42;101015.84;4988132;28;119916;-75
2022/11/28 01:40:55;;;;;;;25.48;18.35;;;;;;;10.70;65.84;101025.06;4973235;28;120043;-75
2022/11/28 01:43:23;;;;;;;26.20;18.83;;;;;;;10.71;65.31;101021.13;4971010;28;119538;-75
2022/11/28 01:45:50;;;;;;;25.33;18.80;;;;;;;10.71;65.40;101021.13;4983936;28;120190;-75
2022/11/28 01:48:24;;;;;;;26.13;19.00;;;;;;;10.70;65.67;101011.38;4986030;28;119366;-76
2022/11/28 01:50:53;;;;;;;26.40;18.58;;;;;;;10.68;65.29;101006.31;4986950;28;119708;-76
2022/11/28 01:53:20;;;;;;;26.27;18.17;;;;;;;10.68;65.59;101002.81;4982346;28;119752;-76
2022/11/28 01:55:54;;;;;;;23.02;17.58;;;;;;;10.64;65.67;100996.66;4990174;28;119443;-75
2022/11/28 01:58:20;;;;;;;25.95;17.75;;;;;;;10.70;65.42;100994.91;4981172;28;119547;-75
2022/11/28 02:00:52;;;;;;;25.42;17.58;;;;;;;10.68;65.37;100997.31;4958499;28;119887;-75
2022/11/28 02:03:29;;;;;;;24.13;17.33;;;;;;;10.66;65.53;101000.50;4971636;28;119932;-76
2022/11/28 02:05:55;;;;;;;24.17;18.13;;;;;;;10.66;65.75;100989.53;4979817;28;120078;-75
2022/11/28 02:08:21;;;;;;;23.58;17.17;;;;;;;10.64;66.03;100985.69;4964931;28;119577;-75
2022/11/28 02:11:28;;;;;;;26.02;17.73;;;;;;;10.66;66.19;100975.06;4971393;28;120877;-75
2022/11/28 02:14:19;;;;;;;25.48;17.40;;;;;;;10.64;65.90;100980.94;4967675;28;120249;-75
2022/11/28 02:17:13;;;;;;;25.80;16.92;;;;;;;10.64;65.76;100964.50;4985399;28;120058;-75
2022/11/28 02:19:51;;;;;;;23.67;16.90;;;;;;;10.64;65.62;100958.25;4971220;28;119748;-76
2022/11/28 02:22:35;;;;;;;24.95;17.40;;;;;;;10.62;65.83;100960.66;4984545;28;120515;-75
2022/11/28 02:25:38;;;;;;;23.17;16.58;;;;;;;10.61;65.93;100959.91;4972726;28;119391;-75
2022/11/28 02:28:07;;;;;;;22.70;16.87;;;;;;;10.61;66.31;100954.41;4988882;28;119377;-75
2022/11/28 02:30:57;;;;;;;22.13;15.90;;;;;;;10.61;66.09;100939.94;4984036;28;119599;-75
2022/11/28 02:33:32;;;;;;;20.90;15.27;;;;;;;10.60;66.06;100949.38;4964512;28;119812;-75
2022/11/28 02:36:12;;;;;;;22.95;16.05;;;;;;;10.60;66.34;100946.63;4961441;28;120482;-75
2022/11/28 02:39:19;;;;;;;22.77;15.37;;;;;;;10.60;65.82;100943.88;4950595;28;119361;-75
2022/11/28 02:41:59;;;;;;;22.80;15.20;;;;;;;10.51;66.03;100925.38;4963676;28;119492;-75
2022/11/28 02:44:35;;;;;;;23.08;15.68;;;;;;;10.54;66.04;100931.94;4982365;28;120123;-76
2022/11/28 02:47:12;;;;;;;21.67;15.13;;;;;;;10.50;66.04;100917.59;4988264;28;119579;-75
2022/11/28 02:49:57;;;;;;;22.40;15.68;;;;;;;10.58;66.47;100933.34;4968592;28;119928;-75
2022/11/28 02:52:35;;;;;;;23.83;15.83;;;;;;;10.60;66.30;100930.16;4984510;28;119357;-75
2022/11/28 02:55:01;;;;;;;21.67;15.88;;;;;;;10.58;66.34;100922.38;4965730;28;121094;-75
2022/11/28 02:57:37;;;;;;;21.30;15.07;;;;;;;10.62;66.14;100927.75;4950873;28;119408;-75
2022/11/28 03:00:31;;;;;;;19.90;14.60;;;;;;;10.59;65.99;100921.19;4983805;28;119480;-75
2022/11/28 03:03:00;;;;;;;19.83;14.48;;;;;;;10.61;66.17;100926.97;4963938;28;119382;-76
2022/11/28 03:05:57;;;;;;;18.88;14.30;;;;;;;10.64;65.85;100922.56;4982739;28;119402;-75
2022/11/28 03:08:54;;;;;;;21.63;13.98;;;;;;;10.65;65.92;100918.66;4934527;28;119715;-75
2022/11/28 03:11:37;;;;;;;17.93;14.00;;;;;;;10.66;65.83;100890.78;4978168;28;119766;-76
2022/11/28 03:14:35;;;;;;;18.95;12.75;;;;;;;10.65;65.25;100877.50;4971504;28;119793;-75
2022/11/28 03:17:10;;;;;;;18.50;12.97;;;;;;;10.61;65.34;100874.88;4991386;28;119529;-75
2022/11/28 03:19:58;;;;;;;18.73;12.48;;;;;;;10.51;65.71;100856.06;4980430;28;120161;-75
2022/11/28 03:22:44;;;;;;;17.53;12.77;;;;;;;10.59;65.68;100862.81;4977860;28;119876;-75
2022/11/28 03:25:26;;;;;;;16.02;11.55;;;;;;;10.60;65.52;100856.09;4984072;28;119720;-75
2022/11/28 03:28:06;;;;;;;16.20;10.85;;;;;;;10.61;65.19;100849.41;4961054;28;119851;-76
2022/11/28 03:31:01;;;;;;;15.75;11.02;;;;;;;10.62;65.21;100848.19;4961755;28;119837;-75
2022/11/28 03:33:32;;;;;;;16.20;10.43;;;;;;;10.62;64.94;100839.97;4958066;28;119826;-75
2022/11/28 03:36:06;;;;;;;15.38;10.50;;;;;;;10.60;65.22;100834.16;4985315;28;119812;-75
2022/11/28 03:38:43;;;;;;;15.85;10.00;;;;;;;10.61;65.42;100839.19;4973694;28;119592;-75
2022/11/28 03:41:41;;;;;;;13.10;9.80;;;;;;;10.60;65.01;100836.91;4986479;28;119857;-75
2022/11/28 03:44:13;;;;;;;14.77;9.47;;;;;;;10.57;65.48;100835.81;4953354;28;119722;-75
2022/11/28 03:46:45;;;;;;;14.63;9.52;;;;;;;10.56;65.18;100836.28;4983408;28;119498;-75
2022/11/28 03:49:18;;;;;;;13.25;9.07;;;;;;;10.59;65.12;100833.41;4983494;28;119314;-76
2022/11/28 03:52:05;;;;;;;12.45;8.90;;;;;;;10.59;65.18;100840.88;4977112;28;119743;-76
2022/11/28 03:54:35;;;;;;;13.63;9.05;;;;;;;10.62;65.42;100839.97;4975492;28;119819;-75
2022/11/28 03:57:23;;;;;;;12.15;8.82;;;;;;;10.65;65.25;100833.63;4982323;28;119850;-75
2022/11/28 03:59:54;;;;;;;12.88;8.57;;;;;;;10.62;64.92;100827.03;4937413;28;120095;-75
2022/11/28 04:02:43;;;;;;;13.70;9.10;;;;;;;10.69;64.98;100839.72;4973279;28;119559;-75
2022/11/28 04:05:31;;;;;;;12.95;8.93;;;;;;;10.70;64.64;100838.53;4961884;28;120200;-75
2022/11/28 04:08:10;;;;;;;12.70;9.00;;;;;;;10.69;64.53;100832.28;4991682;28;119572;-75
2022/11/28 04:10:43;;;;;;;12.23;8.50;;;;;;;10.70;64.75;100836.53;4966923;28;120413;-75
2022/11/28 04:13:25;;;;;;;12.90;8.75;;;;;;;10.72;65.08;100836.84;4986946;28;119852;-75
2022/11/28 04:16:03;;;;;;;15.03;8.90;;;;;;;10.68;64.76;100825.25;4983792;28;119626;-75
2022/11/28 04:18:45;;;;;;;11.02;8.40;;;;;;;10.74;64.74;100839.91;4988168;28;119831;-75
2022/11/28 04:21:23;;;;;;;14.85;8.82;;;;;;;10.73;64.49;100830.16;4989995;28;120012;-75
2022/11/28 04:23:55;;;;;;;13.88;8.50;;;;;;;10.74;64.55;100826.19;4966150;28;119855;-76
2022/11/28 04:26:51;;;;;;;14.02;8.55;;;;;;;10.77;64.53;100822.56;4983363;28;119810;-75
2022/11/28 04:29:19;;;;;;;14.90;9.00;;;;;;;10.77;64.25;100825.31;4962660;28;119786;-75
2022/11/28 04:31:49;;;;;;;12.40;8.27;;;;;;;10.73;64.30;100818.41;4982390;28;119626;-75
2022/11/28 04:34:19;;;;;;;12.55;8.32;;;;;;;10.77;64.38;100830.03;4978585;28;119303;-75
2022/11/28 04:36:47;;;;;;;14.05;8.63;;;;;;;10.77;64.77;100822.56;4973026;28;119681;-75
2022/11/28 04:39:24;;;;;;;14.05;9.15;;;;;;;10.80;64.59;100803.66;4959986;28;121052;-75
2022/11/28 04:41:54;;;;;;;14.10;8.80;;;;;;;10.81;64.34;100800.47;4982904;28;119246;-75
2022/11/28 04:44:25;;;;;;;12.60;9.27;;;;;;;10.81;64.11;100802.44;4985724;28;119529;-75
2022/11/28 04:46:54;;;;;;;13.57;9.30;;;;;;;10.79;64.26;100800.16;4952551;28;120179;-75
2022/11/28 04:49:20;;;;;;;14.25;9.00;;;;;;;10.80;64.15;100801.69;4991837;28;119606;-75
2022/11/28 04:52:13;;;;;;;15.43;9.10;;;;;;;10.81;64.46;100796.97;4988738;28;119612;-75
2022/11/28 04:54:45;;;;;;;13.57;9.48;;;;;;;10.82;64.34;100795.75;4963219;28;119576;-76
2022/11/28 04:57:32;;;;;;;12.35;8.55;;;;;;;10.77;64.41;100791.59;4989909;28;119522;-75
2022/11/28 05:00:01;;;;;;;13.35;8.75;;;;;;;10.79;64.26;100796.66;4984185;28;120426;-75
2022/11/28 05:02:28;;;;;;;13.52;8.40;;;;;;;10.84;64.17;100790.56;4967065;28;120046;-75
2022/11/28 05:04:54;;;;;;;15.13;9.07;;;;;;;10.87;64.40;100790.44;4966782;28;119303;-75
2022/11/28 05:07:20;;;;;;;12.18;8.95;;;;;;;10.87;64.15;100782.19;4988822;28;119573;-75
2022/11/28 05:09:47;;;;;;;14.45;8.60;;;;;;;10.90;64.06;100789.56;4963607;28;119843;-75
2022/11/28 05:12:13;;;;;;;12.07;8.90;;;;;;;10.85;63.69;100770.91;4986812;28;120085;-75
2022/11/28 05:14:39;;;;;;;13.63;8.85;;;;;;;10.87;64.12;100779.47;4997131;28;119916;-75
2022/11/28 05:17:06;;;;;;;13.07;8.80;;;;;;;10.94;64.14;100781.97;4988030;28;119351;-75
2022/11/28 05:19:32;;;;;;;13.07;8.67;;;;;;;10.91;63.63;100774.63;4955606;28;122695;-75
2022/11/28 05:21:58;;;;;;;11.97;8.40;;;;;;;10.95;63.70;100778.00;4987417;28;119781;-75
2022/11/28 05:24:24;;;;;;;11.73;8.30;;;;;;;10.99;63.45;100781.38;4986061;28;119653;-75
2022/11/28 05:26:50;;;;;;;11.75;8.85;;;;;;;10.99;63.33;100795.09;4971645;28;119678;-76
2022/11/28 05:29:17;;;;;;;13.00;8.27;;;;;;;11.00;63.71;100804.84;4971258;28;119423;-75
2022/11/28 05:31:42;;;;;;;11.97;8.70;;;;;;;11.00;63.79;100818.56;4976087;28;119725;-75
2022/11/28 05:34:08;;;;;;;14.67;9.23;;;;;;;11.01;63.62;100828.34;4967808;28;120098;-75
2022/11/28 05:36:53;;;;;;;11.77;8.53;;;;;;;11.01;63.85;100825.59;4986973;28;119580;-75
2022/11/28 05:39:18;;;;;;;13.15;8.75;;;;;;;11.05;63.55;100837.19;4972802;28;119584;-75
2022/11/28 05:41:44;;;;;;;14.05;9.00;;;;;;;11.05;63.32;100842.69;4989980;28;119598;-75
2022/11/28 05:44:10;;;;;;;14.55;8.80;;;;;;;11.00;63.23;100846.03;4962832;28;119640;-75
2022/11/28 05:46:35;;;;;;;12.07;8.85;;;;;;;11.07;63.64;100850.47;4989923;28;119723;-75
2022/11/28 05:49:01;;;;;;;12.45;8.85;;;;;;;11.07;63.02;100850.47;4973400;28;120110;-75
2022/11/28 05:51:27;;;;;;;12.68;8.93;;;;;;;11.07;63.18;100848.50;4985349;28;119323;-75
2022/11/28 05:53:52;;;;;;;12.98;9.32;;;;;;;11.09;63.20;100853.53;4995284;28;119759;-75
2022/11/28 05:56:21;;;;;;;15.32;9.40;;;;;;;11.00;62.92;100842.50;4972623;28;119711;-75
2022/11/28 05:58:47;;;;;;;15.17;9.60;;;;;;;10.98;62.88;100853.94;4986970;28;119651;-75
2022/11/28 06:01:15;;;;;;;13.98;9.55;;;;;;;10.95;62.94;100849.34;4970649;28;119858;-75
2022/11/28 06:03:43;;;;;;;14.52;9.57;;;;;;;10.93;62.55;100846.28;4971319;28;119811;-75
2022/11/28 06:06:12;;;;;;;13.20;9.55;;;;;;;10.92;62.34;100858.47;4989597;28;119358;-75
2022/11/28 06:08:48;;;;;;;13.85;10.00;;;;;;;10.88;62.00;100851.56;4985561;28;119507;-75
2022/11/28 06:11:15;;;;;;;13.07;10.00;;;;;;;10.84;62.36;100850.94;4968337;28;120858;-75
2022/11/28 06:13:41;;;;;;;12.23;9.60;;;;;;;10.81;62.17;100849.84;4971542;28;120952;-75
2022/11/28 06:16:12;;;;;;;14.23;10.07;;;;;;;10.78;62.33;100842.53;4992672;28;119635;-75
2022/11/28 06:18:39;;;;;;;13.82;9.60;;;;;;;10.72;62.81;100838.84;4989532;28;119903;-75
2022/11/28 06:21:11;;;;;;;15.48;10.00;;;;;;;10.74;61.63;100845.41;4972085;28;119774;-75
2022/11/28 06:23:37;;;;;;;13.77;10.30;;;;;;;10.73;62.22;100843.09;4985897;28;119739;-75
2022/11/28 06:26:11;;;;;;;15.32;10.98;;;;;;;10.69;61.92;100839.72;4989085;28;120234;-75
2022/11/28 06:28:38;;;;;;;14.90;10.13;;;;;;;10.65;62.06;100845.34;4990933;28;119509;-76
2022/11/28 06:31:08;;;;;;;14.55;9.93;;;;;;;10.66;62.22;100851.59;4980905;28;119341;-75
2022/11/28 06:33:34;;;;;;;14.25;10.20;;;;;;;10.62;62.12;100848.19;4987968;28;119987;-75
2022/11/28 06:36:01;;;;;;;13.40;10.48;;;;;;;10.67;61.87;100853.13;4989873;28;119523;-76
2022/11/28 06:38:50;;;;;;;15.45;10.80;;;;;;;10.65;61.64;100847.31;4904175;28;119853;-75
2022/11/28 06:41:18;;;;;;;15.63;10.73;;;;;;;10.64;61.82;100848.50;4965595;28;120316;-75
2022/11/28 06:43:46;;;;;;;17.25;10.90;;;;;;;10.63;61.14;100846.97;4989059;28;120272;-75
2022/11/28 06:46:13;;;;;;;14.57;10.70;;;;;;;10.62;61.30;100850.94;4988107;28;119432;-75
2022/11/28 06:48:39;;;;;;;16.13;10.93;;;;;;;10.63;61.86;100841.50;4989460;28;119384;-76
2022/11/28 06:51:07;;;;;;;15.33;11.13;;;;;;;10.59;61.63;100849.09;4955143;28;119447;-75
2022/11/28 06:53:34;;;;;;;15.80;10.93;;;;;;;10.61;61.74;100849.41;4988711;28;119476;-75
2022/11/28 06:56:05;;;;;;;13.40;10.53;;;;;;;10.61;61.29;100843.91;4981943;28;119435;-75
2022/11/28 06:58:31;;;;;;;14.20;11.10;;;;;;;10.58;61.54;100837.34;4989408;28;119612;-75
2022/11/28 07:00:56;;;;;;;16.40;11.23;;;;;;;10.58;61.49;100833.84;4974885;28;119925;-75
2022/11/28 07:03:22;;;;;;;16.77;11.57;;;;;;;10.50;61.51;100821.59;4988248;28;119243;-75
2022/11/28 07:05:51;;;;;;;15.50;11.07;;;;;;;10.54;61.94;100828.50;4951469;28;120049;-75
2022/11/28 07:08:17;;;;;;;14.97;11.40;;;;;;;10.52;61.96;100819.94;4976965;28;119691;-75
2022/11/28 07:10:42;;;;;;;17.70;11.32;;;;;;;10.51;61.56;100820.41;4970449;28;119714;-75
2022/11/28 07:13:08;;;;;;;16.58;11.60;;;;;;;10.51;61.79;100825.88;4981125;28;119556;-75
2022/11/28 07:15:34;;;;;;;14.80;11.35;;;;;;;10.48;61.63;100821.28;4966940;28;119488;-75
2022/11/28 07:17:59;;;;;;;16.48;11.48;;;;;;;10.50;61.61;100821.59;4978749;28;120324;-75
2022/11/28 07:20:25;;;;;;;15.40;11.35;;;;;;;10.52;61.38;100819.19;4993485;28;119947;-75
2022/11/28 07:23:10;;;;;;;16.27;11.80;;;;;;;10.52;61.57;100830.16;4988528;28;119546;-75
2022/11/28 07:25:36;;;;;;;15.43;11.68;;;;;;;10.55;61.74;100841.00;4989842;28;119669;-75
2022/11/28 07:28:01;;;;;;;16.95;11.60;;;;;;;10.55;61.71;100848.47;4969978;28;119651;-75
2022/11/28 07:30:27;;;;;;;15.63;12.10;;;;;;;10.57;61.13;100851.53;4987764;28;120040;-75
2022/11/28 07:32:53;;;;;;;15.95;11.52;;;;;;;10.56;61.43;100850.00;4988586;28;119980;-75
2022/11/28 07:35:19;;;;;;;17.67;12.20;;;;;;;10.57;61.45;100854.25;4984687;28;119567;-75
2022/11/28 07:37:44;;;;;;;16.40;11.80;;;;;;;10.57;61.43;100863.25;4988132;28;119352;-75
2022/11/28 07:40:12;;;;;;;16.63;12.33;;;;;;;10.58;61.90;100862.03;4963298;28;122853;-75
2022/11/28 07:42:38;;;;;;;16.27;12.43;;;;;;;10.58;61.39;100861.28;4989928;28;119444;-75
2022/11/28 07:45:04;;;;;;;18.13;12.63;;;;;;;10.58;61.52;100858.53;4985912;28;119793;-75
2022/11/28 07:47:30;;;;;;;15.85;12.13;;;;;;;10.56;61.36;100852.72;4986391;28;119413;-75
2022/11/28 07:49:56;;;;;;;15.88;12.23;;;;;;;10.56;61.56;100858.97;4966606;28;119190;-75
2022/11/28 07:52:21;;;;;;;17.55;12.55;;;;;;;10.55;61.07;100845.72;4990693;28;119704;-75
2022/11/28 07:54:48;;;;;;;18.85;12.52;;;;;;;10.61;61.09;100860.38;4970834;28;119659;-76
2022/11/28 07:57:14;;;;;;;16.50;12.45;;;;;;;10.62;61.16;100848.97;4965645;28;119391;-75
2022/11/28 07:59:40;;;;;;;17.10;12.93;;;;;;;10.62;61.60;100846.22;4983588;28;120014;-76
2022/11/28 08:02:07;;;;;;;16.08;12.60;;;;;;;10.60;60.97;100859.63;4974796;28;120166;-75
2022/11/28 08:04:33;;;;;;;15.40;12.33;;;;;;;10.58;61.02;100850.31;4967272;28;119875;-77
2022/11/28 08:06:59;;;;;;;17.87;13.10;;;;;;;10.59;61.40;100846.34;4985477;28;119085;-77
2022/11/28 08:09:24;;;;;;;18.30;13.53;;;;;;;10.60;60.99;100853.38;4952600;28;120785;-77
2022/11/28 08:11:53;;;;;;;17.17;13.30;;;;;;;10.64;61.05;100854.00;4966208;28;119505;-77
2022/11/28 08:14:19;;;;;;;18.98;13.60;;;;;;;10.61;61.51;100849.41;4967042;28;119634;-75
2022/11/28 08:16:44;;;;;;;18.00;13.45;;;;;;;10.66;60.99;100851.59;4970991;28;120002;-74
2022/11/28 08:19:10;;;;;;;18.90;13.95;;;;;;;10.66;61.07;100857.09;4988249;28;119304;-75
2022/11/28 08:21:37;;;;;;;17.80;13.43;;;;;;;10.67;61.01;100856.63;4965439;28;119592;-75
2022/11/28 08:24:04;;;;;;;17.07;13.77;;;;;;;10.66;61.00;100846.13;4985630;28;119696;-77
2022/11/28 08:26:31;;;;;;;16.63;13.27;;;;;;;10.72;61.12;100852.56;4987310;28;119779;-75
2022/11/28 08:28:58;;;;;;;21.10;14.52;;;;;;;10.71;61.10;100860.03;4983735;28;119828;-76
2022/11/28 08:31:29;;;;;;;19.17;14.47;;;;;;;10.69;60.78;100854.22;4986896;28;119819;-75
2022/11/28 08:33:57;;;;;;;17.15;13.70;;;;;;;10.67;60.91;100844.91;4983834;28;119703;-75
2022/11/28 08:36:23;;;;;;;18.00;14.43;;;;;;;10.69;61.44;100851.47;4985851;28;119281;-75
2022/11/28 08:38:48;;;;;;;18.47;14.53;;;;;;;10.72;61.25;100853.31;4985476;28;119707;-75
2022/11/28 08:41:18;;;;;;;19.67;15.05;;;;;;;10.70;61.55;100860.47;4986225;28;119525;-75
2022/11/28 08:43:45;;;;;;;22.38;15.30;;;;;;;10.69;60.84;100856.19;4983096;28;119732;-75
2022/11/28 08:46:14;;;;;;;20.33;15.38;;;;;;;10.67;61.07;100853.13;4981929;28;119743;-77
2022/11/28 08:48:43;;;;;;;19.23;15.07;;;;;;;10.66;60.90;100854.34;4991683;28;119822;-77
2022/11/28 08:51:14;;;;;;;21.20;15.93;;;;;;;10.63;61.08;100855.22;4967651;28;119889;-77
2022/11/28 08:53:41;;;;;;;21.40;15.90;;;;;;;10.68;61.65;100863.66;4982763;28;119648;-77
2022/11/28 08:56:07;;;;;;;20.83;15.38;;;;;;;10.72;61.44;100866.28;4966909;28;119621;-77
2022/11/28 08:58:32;;;;;;;21.00;16.05;;;;;;;10.68;61.56;100863.66;4987276;28;121256;-75
2022/11/28 09:00:58;;;;;;;20.67;15.77;;;;;;;10.64;61.28;100859.50;4985676;28;119967;-75
2022/11/28 09:03:24;;;;;;;22.35;16.45;;;;;;;10.60;61.47;100864.34;4989590;28;120379;-75
2022/11/28 09:06:19;;;;;;;21.58;16.80;;;;;;;10.66;62.26;100876.28;4966460;28;120002;-78
2022/11/28 09:08:46;;;;;;;23.58;16.38;;;;;;;10.66;62.11;100868.06;4982991;28;119771;-75
2022/11/28 09:11:16;;;;;;;22.95;17.27;;;;;;;10.65;62.58;100872.03;4990301;28;119535;-75
2022/11/28 09:13:42;;;;;;;22.60;16.90;;;;;;;10.67;62.30;100881.34;4983489;28;119588;-75
2022/11/28 09:16:14;;;;;;;22.48;16.33;;;;;;;10.63;61.29;100872.44;4954119;28;119699;-75
2022/11/28 09:18:40;;;;;;;21.00;16.60;;;;;;;10.66;61.71;100877.06;4984219;28;119950;-75
2022/11/28 09:21:08;;;;;;;22.80;16.80;;;;;;;10.65;61.76;100883.00;4983609;28;119965;-75
2022/11/28 09:23:35;;;;;;;21.08;16.08;;;;;;;10.68;61.88;100888.34;4987224;28;119795;-77
2022/11/28 09:26:10;;;;;;;21.73;16.87;;;;;;;10.73;61.98;100884.25;4983849;28;119843;-77
2022/11/28 09:28:36;;;;;;;23.17;17.38;;;;;;;10.76;61.95;100877.88;4964321;28;119600;-76
2022/11/28 09:31:03;;;;;;;24.00;17.33;;;;;;;10.77;60.97;100888.41;4986981;28;119779;-77
2022/11/28 09:33:29;;;;;;;23.02;16.58;;;;;;;10.79;61.39;100887.19;4984095;28;120050;-77
2022/11/28 09:35:56;;;;;;;22.95;16.95;;;;;;;10.75;61.70;100881.84;4966745;28;119999;-77
2022/11/28 09:38:24;;;;;;;21.50;16.83;;;;;;;10.74;62.15;100877.56;4986702;28;120439;-77
2022/11/28 09:40:50;;;;;;;24.05;17.05;;;;;;;10.71;62.28;100871.00;4985644;28;120663;-77
2022/11/28 09:43:35;;;;;;;22.42;16.90;;;;;;;10.72;62.19;100877.25;4968909;28;120299;-77
2022/11/28 09:46:04;;;;;;;23.75;17.25;;;;;;;10.75;62.24;100884.56;4986432;28;119342;-77
2022/11/28 09:48:35;;;;;;;24.03;18.27;;;;;;;10.79;62.77;100876.97;4965027;28;120004;-77
2022/11/28 09:51:33;;;;;;;24.15;17.65;;;;;;;10.85;62.51;100874.44;4985501;28;119846;-77
2022/11/28 09:54:20;;;;;;;24.67;17.77;;;;;;;10.85;62.53;100880.69;4965293;28;119453;-77
2022/11/28 09:56:48;;;;;;;22.43;17.30;;;;;;;10.86;62.02;100881.44;4986028;28;119649;-77
2022/11/28 09:59:34;;;;;;;22.13;16.95;;;;;;;10.84;62.36;100873.66;4984847;28;119938;-77
2022/11/28 10:02:03;;;;;;;23.00;17.48;;;;;;;10.87;63.18;100869.25;4970016;28;121244;-77
2022/11/28 10:04:28;;;;;;;25.00;17.73;;;;;;;10.90;62.84;100882.09;4985926;28;119726;-77
2022/11/28 10:07:28;;;;;;;23.27;17.95;;;;;;;10.89;61.92;100870.34;4952120;28;120114;-77
2022/11/28 10:10:12;;;;;;;26.08;18.42;;;;;;;10.88;62.53;100862.53;4987529;28;119411;-78
2022/11/28 10:13:06;;;;;;;26.25;18.13;;;;;;;10.90;62.34;100862.91;4968025;28;120219;-77
2022/11/28 10:15:44;;;;;;;25.20;18.08;;;;;;;10.90;62.72;100855.44;4986387;28;119993;-77
2022/11/28 10:18:25;;;;;;;23.27;17.93;;;;;;;10.91;62.77;100865.19;4972971;28;119666;-77
2022/11/28 10:20:56;;;;;;;23.77;18.00;;;;;;;10.91;62.80;100856.19;4985882;28;120014;-77
2022/11/28 10:23:25;;;;;;;22.40;17.65;;;;;;;10.94;62.22;100867.03;4952712;28;119877;-77
2022/11/28 10:26:01;;;;;;;23.70;17.85;;;;;;;10.99;62.56;100873.91;4986274;28;119670;-77
2022/11/28 10:28:35;;;;;;;23.25;17.73;;;;;;;10.97;62.08;100871.63;4985286;28;119638;-75
2022/11/28 10:31:14;;;;;;;24.65;18.13;;;;;;;10.96;62.55;100870.09;4966983;28;120081;-75
2022/11/28 10:34:05;;;;;;;23.40;18.30;;;;;;;10.99;62.67;100874.69;4984175;28;119808;-78
2022/11/28 10:36:38;;;;;;;24.85;18.10;;;;;;;10.95;62.42;100876.78;4985115;28;119775;-78
2022/11/28 10:39:11;;;;;;;25.30;18.20;;;;;;;10.93;62.42;100881.97;4984804;28;119517;-77
2022/11/28 10:42:10;;;;;;;23.30;18.20;;;;;;;10.88;62.79;100868.03;4988733;28;120569;-77
2022/11/28 10:44:43;;;;;;;26.17;19.15;;;;;;;10.83;62.98;100872.13;4983850;28;120236;-75
2022/11/28 10:47:15;;;;;;;27.75;19.30;;;;;;;10.81;63.16;100877.31;4967911;28;119593;-75
2022/11/28 10:49:59;;;;;;;25.33;19.25;;;;;;;10.75;63.56;100865.38;4985421;28;119958;-75
2022/11/28 10:52:45;;;;;;;26.92;19.65;;;;;;;10.75;63.52;100876.34;4983282;28;119756;-75
2022/11/28 10:55:42;;;;;;;27.67;19.70;;;;;;;10.69;63.65;100875.41;4964558;28;120032;-75
2022/11/28 10:58:23;;;;;;;26.52;20.10;;;;;;;10.72;63.70;100880.00;4967067;28;121211;-75
2022/11/28 11:00:59;;;;;;;28.35;20.83;;;;;;;10.67;64.38;100875.09;4977310;28;119326;-75
2022/11/28 11:03:28;;;;;;;26.92;20.25;;;;;;;10.68;64.36;100879.34;4987492;28;119537;-75
2022/11/28 11:05:58;;;;;;;26.45;19.63;;;;;;;10.68;64.21;100882.09;4973247;28;120082;-75
2022/11/28 11:08:28;;;;;;;28.23;20.15;;;;;;;10.66;64.30;100879.03;4989552;28;119553;-75
2022/11/28 11:11:03;;;;;;;29.10;21.03;;;;;;;10.69;64.91;100878.91;4984792;28;119784;-75
2022/11/28 11:13:32;;;;;;;29.67;20.42;;;;;;;10.69;64.72;100884.41;4966889;28;119578;-75
2022/11/28 11:16:09;;;;;;;27.65;20.42;;;;;;;10.69;64.58;100883.63;4983735;28;119441;-75
2022/11/28 11:18:55;;;;;;;27.58;20.30;;;;;;;10.69;64.54;100889.13;4984404;28;119780;-75
2022/11/28 11:21:24;;;;;;;27.70;20.42;;;;;;;10.66;64.85;100882.53;4988007;28;119495;-75
2022/11/28 11:24:10;;;;;;;26.98;19.67;;;;;;;10.66;64.64;100879.81;4986986;28;119319;-77
2022/11/28 11:26:42;;;;;;;26.50;19.95;;;;;;;10.64;64.64;100886.91;4985676;28;119874;-77
2022/11/28 11:29:35;;;;;;;25.88;19.33;;;;;;;10.64;65.02;100875.94;4988071;28;119650;-77